Time;durP1;ratioP1;P1;durP2;ratioP2;P2;SDS_P1;SDS_P2;PMS_P1;PMS_P2;Temp;Humidity;BMP_temperature;BMP_pressure;BME280_temperature;BME280_humidity;BME280_pressure;Samples;Min_cycle;Max_cycle;Signal;HPM_P1;HPM_P2
2022/06/06 00:00:48;;;;;;;10.48;5.70;;;;;;;16.73;53.82;98609.78;1786445;80;25601;-57
2022/06/06 00:03:16;;;;;;;6.78;5.42;;;;;;;16.70;54.17;98602.19;1786371;80;27388;-58
2022/06/06 00:05:47;;;;;;;8.98;5.80;;;;;;;16.64;54.31;98608.58;1786185;80;25403;-57
2022/06/06 00:08:15;;;;;;;7.58;6.35;;;;;;;16.59;54.52;98611.03;1786559;80;25606;-57
2022/06/06 00:10:46;;;;;;;6.85;5.97;;;;;;;16.53;54.43;98609.08;1786209;80;25896;-61
2022/06/06 00:13:15;;;;;;;9.03;6.40;;;;;;;16.51;54.92;98611.98;1785991;80;25585;-61
2022/06/06 00:15:42;;;;;;;8.58;6.12;;;;;;;16.47;54.92;98606.95;1786370;80;26936;-60
2022/06/06 00:18:07;;;;;;;11.53;5.92;;;;;;;16.39;55.59;98602.62;1786499;80;25412;-60
2022/06/06 00:20:33;;;;;;;6.62;5.62;;;;;;;16.31;56.05;98604.95;1786610;80;25423;-61
2022/06/06 00:23:00;;;;;;;8.50;6.20;;;;;;;16.19;56.32;98604.45;1786343;80;25914;-62
2022/06/06 00:25:28;;;;;;;8.83;5.33;;;;;;;16.09;56.83;98596.67;1786350;80;25637;-57
2022/06/06 00:27:54;;;;;;;8.18;6.67;;;;;;;16.01;57.14;98590.92;1785990;80;27412;-57
2022/06/06 00:30:20;;;;;;;8.25;6.67;;;;;;;15.96;56.92;98600.83;1785945;79;25624;-57
2022/06/06 00:35:30;;;;;;;8.55;6.20;;;;;;;15.90;57.30;98603.05;1785693;80;25658;-57
2022/06/06 00:37:57;;;;;;;7.20;6.45;;;;;;;15.86;57.49;98600.73;1786102;80;25427;-57
2022/06/06 00:40:25;;;;;;;7.60;6.78;;;;;;;15.78;57.68;98598.94;1785828;80;27892;-57
2022/06/06 00:42:52;;;;;;;10.08;6.35;;;;;;;15.73;58.17;98604.13;1785955;80;26044;-61
2022/06/06 00:45:29;;;;;;;7.03;6.08;;;;;;;15.61;58.73;98593.92;1785964;80;25652;-59
2022/06/06 00:48:07;;;;;;;8.08;6.30;;;;;;;15.61;58.25;98591.16;1786486;80;25899;-63
2022/06/06 00:50:57;;;;;;;8.73;6.62;;;;;;;15.55;58.43;98585.06;1785918;80;25550;-63
2022/06/06 00:53:37;;;;;;;8.97;6.80;;;;;;;15.54;58.97;98590.36;1786301;80;27531;-63
2022/06/06 00:56:18;;;;;;;7.25;6.40;;;;;;;15.49;59.08;98584.29;1786272;80;29967;-64
2022/06/06 00:58:48;;;;;;;7.60;6.22;;;;;;;15.47;59.04;98574.97;1786081;80;25617;-60
2022/06/06 01:01:15;;;;;;;7.40;6.42;;;;;;;15.45;59.47;98573.13;1757429;80;25762;-58
2022/06/06 01:03:42;;;;;;;7.87;6.60;;;;;;;15.45;59.68;98575.89;1785603;80;25396;-61
2022/06/06 01:06:13;;;;;;;8.18;6.58;;;;;;;15.41;59.70;98574.98;1785969;80;27449;-58
2022/06/06 01:08:41;;;;;;;8.40;6.60;;;;;;;15.40;59.35;98582.45;1785891;80;25728;-57
2022/06/06 01:11:08;;;;;;;10.95;6.45;;;;;;;15.35;59.57;98579.13;1757648;80;25705;-57
2022/06/06 01:13:36;;;;;;;7.55;6.22;;;;;;;15.30;59.93;98574.09;1785645;80;25719;-56
2022/06/06 01:16:23;;;;;;;8.20;6.78;;;;;;;15.28;60.18;98569.48;1786145;80;25629;-57
2022/06/06 01:19:00;;;;;;;9.05;6.35;;;;;;;15.28;60.18;98569.48;1785728;80;27425;-56
2022/06/06 01:21:34;;;;;;;8.78;7.25;;;;;;;15.25;59.54;98568.80;1785642;80;25557;-57
2022/06/06 01:24:47;;;;;;;8.68;6.67;;;;;;;15.24;60.17;98569.14;1786205;80;25609;-57
2022/06/06 01:27:31;;;;;;;8.50;7.08;;;;;;;15.26;59.89;98574.53;1786141;80;25755;-56
2022/06/06 01:30:03;;;;;;;9.05;6.35;;;;;;;15.28;59.88;98583.28;1785622;79;25624;-56
2022/06/06 01:32:40;;;;;;;10.08;7.08;;;;;;;15.23;60.58;98573.06;1786132;80;27023;-62
2022/06/06 01:35:08;;;;;;;9.68;7.08;;;;;;;15.23;60.58;98573.06;1785093;80;25597;-63
2022/06/06 01:37:43;;;;;;;8.35;6.67;;;;;;;15.23;60.79;98578.58;1786103;80;25483;-59
2022/06/06 01:40:16;;;;;;;8.18;6.42;;;;;;;15.19;60.74;98586.74;1785811;80;25678;-61
2022/06/06 01:43:02;;;;;;;10.40;7.17;;;;;;;15.19;60.74;98586.74;1785722;80;25732;-61
2022/06/06 01:46:00;;;;;;;8.05;6.47;;;;;;;15.13;60.79;98592.27;1786136;80;27237;-61
2022/06/06 01:48:34;;;;;;;7.28;6.58;;;;;;;15.05;61.64;98595.38;1786124;80;25621;-62
2022/06/06 01:51:08;;;;;;;9.15;7.08;;;;;;;14.93;61.83;98583.20;1786208;80;25728;-57
2022/06/06 01:53:37;;;;;;;10.88;7.28;;;;;;;14.93;61.64;98590.66;1784933;80;26447;-58
2022/06/06 01:56:07;;;;;;;8.10;6.78;;;;;;;14.96;61.51;98593.30;1786122;80;25563;-57
2022/06/06 01:58:34;;;;;;;8.65;7.08;;;;;;;14.91;61.75;98602.05;1757511;80;27438;-57
2022/06/06 02:01:02;;;;;;;8.80;6.20;;;;;;;14.92;61.76;98597.34;1786137;80;25415;-57
2022/06/06 02:03:33;;;;;;;7.92;7.12;;;;;;;14.92;62.18;98594.58;1785827;80;25654;-57
2022/06/06 02:06:01;;;;;;;;;;;;;;;14.92;62.18;98594.58;1789000;80;25772;-56
2022/06/06 02:08:32;;;;;;;7.67;6.83;;;;;;;14.95;62.03;98599.98;1786397;80;25541;-59
2022/06/06 02:11:01;;;;;;;9.33;7.33;;;;;;;14.97;61.76;98601.83;1786242;80;28080;-58
2022/06/06 02:13:38;;;;;;;8.20;6.67;;;;;;;14.99;61.76;98596.19;1786120;80;25710;-59
2022/06/06 02:16:11;;;;;;;10.00;6.55;;;;;;;14.97;61.80;98597.09;1785762;80;25586;-62
2022/06/06 02:18:45;;;;;;;10.48;7.42;;;;;;;15.00;61.92;98594.24;1785947;80;26540;-64
2022/06/06 02:21:16;;;;;;;8.08;6.03;;;;;;;14.98;61.87;98593.77;1785858;80;25704;-61
2022/06/06 02:23:48;;;;;;;8.53;7.10;;;;;;;14.92;62.09;98579.41;1785807;80;27504;-60
2022/06/06 02:26:22;;;;;;;8.43;7.00;;;;;;;14.96;61.92;98591.36;1786134;80;25444;-62
2022/06/06 02:28:52;;;;;;;9.95;7.67;;;;;;;14.96;61.93;98581.70;1785930;80;25621;-60
2022/06/06 02:31:25;;;;;;;11.53;7.45;;;;;;;15.01;61.97;98589.75;1784376;80;26470;-60
2022/06/06 02:34:06;;;;;;;9.58;7.28;;;;;;;14.98;61.96;98587.69;1784359;79;25597;-57
2022/06/06 02:36:42;;;;;;;8.83;7.35;;;;;;;14.93;62.09;98590.09;1784119;79;27520;-57
2022/06/06 02:39:16;;;;;;;7.70;6.90;;;;;;;14.95;61.87;98585.61;1783481;79;25385;-57
2022/06/06 02:41:46;;;;;;;8.95;7.62;;;;;;;14.97;62.25;98589.41;1783892;79;25645;-57
2022/06/06 02:44:20;;;;;;;10.58;8.03;;;;;;;14.93;62.15;98589.28;1784249;80;25711;-57
2022/06/06 02:46:47;;;;;;;10.75;7.92;;;;;;;14.93;62.35;98592.05;1784173;80;25380;-57
2022/06/06 02:49:13;;;;;;;10.23;7.70;;;;;;;14.93;62.32;98591.48;1784202;80;27925;-57
2022/06/06 02:51:39;;;;;;;9.03;7.78;;;;;;;14.95;62.44;98593.08;1784050;80;25423;-57
2022/06/06 02:54:05;;;;;;;10.78;7.25;;;;;;;14.95;62.38;98596.66;1783988;79;25416;-59
2022/06/06 02:56:31;;;;;;;8.00;6.87;;;;;;;15.06;62.84;98592.86;1784248;79;25681;-60
2022/06/06 02:59:03;;;;;;;8.78;7.47;;;;;;;15.06;62.84;98592.86;1784113;80;25685;-57
2022/06/06 03:01:28;;;;;;;10.75;7.87;;;;;;;15.07;62.43;98598.59;1770982;80;27447;-64
2022/06/06 03:03:54;;;;;;;10.55;7.03;;;;;;;15.05;62.38;98593.99;1784032;79;25842;-59
2022/06/06 03:06:32;;;;;;;10.90;7.47;;;;;;;15.05;62.18;98599.52;1784222;80;25669;-59
2022/06/06 03:09:28;;;;;;;8.78;7.17;;;;;;;15.06;62.29;98599.77;1784046;79;25863;-59
2022/06/06 03:12:12;;;;;;;9.25;7.55;;;;;;;15.07;62.46;98596.41;1784146;79;25570;-59
2022/06/06 03:15:34;;;;;;;14.35;8.05;;;;;;;15.02;62.65;98604.34;1783638;79;27771;-60
2022/06/06 03:21:19;;;;;;;10.08;7.80;;;;;;;14.96;62.95;98605.16;1783856;80;25709;-56
2022/06/06 03:24:17;;;;;;;10.78;7.80;;;;;;;14.88;62.86;98603.33;1784097;79;25759;-57
2022/06/06 03:27:12;;;;;;;10.00;8.13;;;;;;;14.88;62.86;98603.33;1784154;79;25440;-57
2022/06/06 03:29:55;;;;;;;12.68;7.58;;;;;;;14.92;63.11;98609.75;1770175;79;26736;-57
2022/06/06 03:32:44;;;;;;;8.35;7.15;;;;;;;14.95;62.98;98611.02;1785719;80;25559;-57
2022/06/06 03:35:15;;;;;;;9.78;7.42;;;;;;;14.97;63.39;98612.27;1785878;80;25649;-57
2022/06/06 03:38:06;;;;;;;10.05;7.92;;;;;;;15.03;62.86;98616.41;1785815;80;25726;-58
2022/06/06 03:41:12;;;;;;;10.15;7.33;;;;;;;15.14;63.18;98610.45;1786126;80;25637;-57
2022/06/06 03:44:15;;;;;;;9.88;7.58;;;;;;;15.16;62.94;98613.66;1785728;80;28495;-57
2022/06/06 03:47:04;;;;;;;10.05;8.20;;;;;;;15.21;62.69;98607.09;1785346;80;25674;-60
2022/06/06 03:49:59;;;;;;;9.05;7.65;;;;;;;15.27;62.54;98612.61;1786025;80;25689;-63
2022/06/06 03:52:48;;;;;;;10.35;7.85;;;;;;;15.39;62.59;98618.69;1778664;80;25791;-63
2022/06/06 03:55:29;;;;;;;10.93;7.90;;;;;;;15.47;62.41;98610.05;1786133;80;25957;-60
2022/06/06 03:57:56;;;;;;;9.88;7.58;;;;;;;15.47;62.43;98603.97;1784987;80;27600;-60
2022/06/06 04:00:23;;;;;;;12.03;7.60;;;;;;;15.48;62.30;98601.98;1785978;80;25725;-57
2022/06/06 04:02:51;;;;;;;10.28;7.85;;;;;;;15.51;62.08;98602.11;1786003;80;25445;-57
2022/06/06 04:05:22;;;;;;;11.65;8.48;;;;;;;15.53;62.33;98598.44;1785968;80;25755;-57
2022/06/06 04:07:49;;;;;;;10.13;8.28;;;;;;;15.57;62.09;98604.05;1785714;80;25425;-57
2022/06/06 04:10:17;;;;;;;10.43;8.18;;;;;;;15.65;61.99;98600.35;1785961;80;27480;-62
2022/06/06 04:13:26;;;;;;;10.43;7.37;;;;;;;15.71;62.19;98600.13;1794964;78;25685;-66
2022/06/06 04:16:01;;;;;;;9.43;7.47;;;;;;;15.66;62.03;98596.42;1758500;80;25774;-59
2022/06/06 04:18:36;;;;;;;8.78;7.65;;;;;;;15.61;62.14;98596.69;1773518;80;27821;-59
2022/06/06 04:21:19;;;;;;;11.68;7.75;;;;;;;15.59;62.17;98595.41;1719996;80;25791;-59
2022/06/06 04:24:19;;;;;;;9.20;7.20;;;;;;;15.62;62.19;98602.44;1770168;80;26885;-59
2022/06/06 04:27:09;;;;;;;9.23;7.70;;;;;;;15.64;62.29;98602.08;1752650;81;25848;-64
2022/06/06 04:30:01;;;;;;;9.55;7.62;;;;;;;15.60;62.47;98605.33;1752978;81;25675;-63
2022/06/06 04:33:12;;;;;;;10.10;7.85;;;;;;;15.64;62.44;98608.42;1752988;81;25787;-61
2022/06/06 04:36:06;;;;;;;9.73;7.58;;;;;;;15.66;62.21;98603.93;1753296;81;25743;-62
2022/06/06 04:38:53;;;;;;;10.48;7.53;;;;;;;15.71;62.25;98610.58;1752921;81;27402;-60
2022/06/06 04:41:36;;;;;;;10.80;7.97;;;;;;;15.73;62.21;98608.84;1753186;81;25912;-65
2022/06/06 04:44:37;;;;;;;11.60;8.33;;;;;;;15.80;62.43;98607.66;1715544;81;25874;-65
2022/06/06 04:47:26;;;;;;;10.15;7.20;;;;;;;15.82;62.13;98609.51;1753372;81;26353;-63
2022/06/06 04:49:57;;;;;;;12.07;8.53;;;;;;;15.76;62.78;98602.05;1753189;81;25735;-65
2022/06/06 04:52:24;;;;;;;12.75;8.05;;;;;;;15.77;62.61;98606.41;1753480;81;27222;-65
2022/06/06 04:54:52;;;;;;;11.97;7.22;;;;;;;15.84;62.46;98602.25;1753171;81;25831;-66
2022/06/06 04:57:20;;;;;;;9.83;8.28;;;;;;;15.87;62.50;98599.60;1754022;81;25700;-65
2022/06/06 04:59:48;;;;;;;11.53;8.80;;;;;;;15.87;62.78;98597.41;1754379;81;25850;-66
2022/06/06 05:02:15;;;;;;;9.48;8.08;;;;;;;15.92;62.61;98597.95;1754130;81;25767;-67
2022/06/06 05:04:41;;;;;;;8.43;7.50;;;;;;;16.10;62.29;98599.65;1753959;81;27541;-67
2022/06/06 05:07:39;;;;;;;9.93;7.87;;;;;;;16.28;62.18;98597.37;1754227;81;25972;-63
2022/06/06 05:10:19;;;;;;;11.10;8.33;;;;;;;16.42;61.76;98596.95;1754083;81;25499;-67
2022/06/06 05:13:00;;;;;;;8.95;8.05;;;;;;;16.55;61.40;98604.01;1787977;79;25726;-66
2022/06/06 05:15:41;;;;;;;10.15;8.08;;;;;;;16.66;61.48;98611.20;1793658;78;25515;-61
2022/06/06 05:18:43;;;;;;;12.10;8.65;;;;;;;16.84;61.54;98615.59;1765448;80;27499;-59
2022/06/06 05:21:45;;;;;;;10.88;7.60;;;;;;;17.06;61.21;98623.26;1765464;80;25738;-62
2022/06/06 05:24:34;;;;;;;11.35;7.95;;;;;;;17.32;61.03;98618.33;1765385;81;25372;-67
2022/06/06 05:27:20;;;;;;;10.78;8.48;;;;;;;17.59;60.94;98621.31;1765399;81;25727;-67
2022/06/06 05:30:04;;;;;;;10.23;8.35;;;;;;;17.76;60.02;98621.46;1765110;80;25763;-68
2022/06/06 05:32:51;;;;;;;12.90;8.10;;;;;;;17.84;59.51;98627.18;1765215;81;28228;-67
2022/06/06 05:36:13;;;;;;;11.05;7.80;;;;;;;18.05;59.18;98624.83;1765894;81;25630;-68
2022/06/06 05:38:54;;;;;;;9.28;7.28;;;;;;;18.20;59.23;98627.11;1764787;81;25609;-65
2022/06/06 05:41:44;;;;;;;12.43;6.28;;;;;;;18.36;58.48;98635.36;1765296;81;25756;-68
2022/06/06 05:44:27;;;;;;;10.27;7.10;;;;;;;18.53;58.12;98626.56;1765088;81;25433;-67
2022/06/06 05:47:24;;;;;;;9.73;7.17;;;;;;;18.55;58.45;98629.78;1765183;81;28272;-67
2022/06/06 05:50:14;;;;;;;9.03;7.12;;;;;;;18.85;58.41;98628.89;1765073;80;25606;-61
2022/06/06 05:52:59;;;;;;;9.83;7.20;;;;;;;19.06;57.55;98627.05;1765860;81;25629;-62
2022/06/06 05:55:53;;;;;;;12.63;7.17;;;;;;;19.31;57.64;98630.24;1765459;81;25773;-62
2022/06/06 05:58:46;;;;;;;11.60;8.00;;;;;;;19.60;56.99;98628.45;1765308;80;25454;-62
2022/06/06 06:01:42;;;;;;;12.07;7.90;;;;;;;19.94;56.95;98634.08;1765289;81;27417;-63
2022/06/06 06:04:33;;;;;;;7.60;6.50;;;;;;;20.28;56.85;98637.48;1764891;81;25637;-63
2022/06/06 06:07:29;;;;;;;6.53;5.67;;;;;;;20.54;55.40;98641.92;1765635;80;25392;-64
2022/06/06 06:10:10;;;;;;;8.50;6.40;;;;;;;20.75;55.00;98637.15;1765543;81;26356;-63
2022/06/06 06:13:05;;;;;;;7.90;6.87;;;;;;;21.05;54.99;98633.48;1765582;80;25576;-66
2022/06/06 06:15:42;;;;;;;7.15;6.17;;;;;;;21.34;54.70;98631.48;1771314;80;28099;-59
2022/06/06 06:18:19;;;;;;;7.00;6.03;;;;;;;21.47;54.28;98636.13;1781116;79;25592;-66
2022/06/06 06:21:03;;;;;;;6.78;5.83;;;;;;;21.62;54.10;98634.84;1781427;80;25534;-57
2022/06/06 06:23:34;;;;;;;7.35;6.50;;;;;;;21.77;53.90;98639.92;1781071;80;26201;-64
2022/06/06 06:26:04;;;;;;;7.58;6.78;;;;;;;22.02;53.94;98639.25;1781524;80;25377;-59
2022/06/06 06:28:34;;;;;;;10.78;5.83;;;;;;;22.10;54.09;98635.28;1781302;79;28243;-67
2022/06/06 06:31:27;;;;;;;6.17;5.58;;;;;;;22.34;54.12;98640.55;1782038;80;34530;-63
2022/06/06 06:34:05;;;;;;;6.67;6.00;;;;;;;22.57;53.44;98648.59;1780674;80;25953;-58
2022/06/06 06:36:37;;;;;;;7.62;5.50;;;;;;;22.81;54.52;98654.63;1778081;80;26118;-65
2022/06/06 06:39:08;;;;;;;11.90;7.53;;;;;;;22.91;52.25;98648.25;1781382;79;25376;-60
2022/06/06 06:42:17;;;;;;;15.70;9.15;;;;;;;23.01;52.48;98641.67;1780496;80;27296;-59
2022/06/06 06:44:49;;;;;;;11.78;7.97;;;;;;;23.15;52.83;98647.86;1796248;79;25686;-59
2022/06/06 06:47:21;;;;;;;11.70;8.25;;;;;;;23.40;52.26;98643.66;1795317;79;25506;-60
2022/06/06 06:50:02;;;;;;;9.88;6.45;;;;;;;23.61;51.92;98650.44;1796592;79;26547;-64
2022/06/06 06:52:42;;;;;;;9.58;6.62;;;;;;;23.64;51.51;98647.42;1795018;79;25501;-59
2022/06/06 06:55:39;;;;;;;6.85;6.08;;;;;;;23.79;52.23;98649.58;1796127;79;27440;-57
2022/06/06 06:58:26;;;;;;;7.35;6.08;;;;;;;24.15;51.78;98652.88;1796336;79;25640;-60
2022/06/06 07:00:59;;;;;;;7.50;6.70;;;;;;;24.38;49.50;98637.57;1794945;79;25517;-62
2022/06/06 07:10:23;;;;;;;5.90;5.28;;;;;;;24.67;48.71;98638.17;1796233;79;25591;-63
2022/06/06 07:13:19;;;;;;;7.80;6.47;;;;;;;24.63;48.92;98638.80;1749939;82;25803;-63
2022/06/06 07:15:54;;;;;;;7.75;6.12;;;;;;;24.77;49.04;98642.12;1728542;82;25781;-61
2022/06/06 07:18:25;;;;;;;6.50;5.40;;;;;;;25.00;49.57;98639.37;1719771;83;25902;-63
2022/06/06 07:20:52;;;;;;;5.78;5.17;;;;;;;25.24;48.37;98637.37;1719787;83;25679;-61
2022/06/06 07:23:21;;;;;;;5.95;5.45;;;;;;;25.45;46.92;98641.98;1719494;83;27486;-61
2022/06/06 07:25:50;;;;;;;9.45;5.95;;;;;;;25.42;47.00;98639.38;1719887;83;25728;-63
2022/06/06 07:28:21;;;;;;;6.35;5.22;;;;;;;25.56;47.46;98636.26;1719807;83;25664;-61
2022/06/06 07:30:59;;;;;;;6.87;5.30;;;;;;;25.81;47.54;98624.77;1719836;83;25697;-63
2022/06/06 07:34:09;;;;;;;6.25;5.22;;;;;;;26.01;46.98;98627.54;1719538;83;25794;-57
2022/06/06 07:37:22;;;;;;;5.70;5.10;;;;;;;26.09;46.02;98626.24;1719794;83;28316;-66
2022/06/06 07:40:11;;;;;;;6.85;5.70;;;;;;;26.53;46.89;98627.07;1719403;83;25752;-67
2022/06/06 07:43:28;;;;;;;5.72;5.03;;;;;;;27.06;46.07;98621.06;1720110;83;25730;-58
2022/06/06 07:46:09;;;;;;;6.25;5.65;;;;;;;27.35;43.26;98621.16;1719120;83;25743;-65
2022/06/06 07:48:53;;;;;;;6.00;5.45;;;;;;;27.24;44.37;98622.77;1726061;81;25886;-59
2022/06/06 07:51:40;;;;;;;5.12;4.72;;;;;;;27.41;42.71;98624.47;1765236;81;28015;-58
2022/06/06 07:54:39;;;;;;;6.35;5.33;;;;;;;27.20;43.38;98625.62;1765071;81;26125;-60
2022/06/06 07:57:26;;;;;;;8.68;5.25;;;;;;;27.30;42.59;98621.84;1765637;81;25636;-65
2022/06/06 08:00:09;;;;;;;5.25;4.78;;;;;;;27.48;43.61;98623.52;1755872;81;26101;-65
2022/06/06 08:03:02;;;;;;;8.13;5.47;;;;;;;27.87;43.07;98622.62;1765179;81;25556;-61
2022/06/06 08:06:08;;;;;;;6.53;4.97;;;;;;;28.24;43.80;98619.83;1765193;81;27574;-61
2022/06/06 08:08:54;;;;;;;5.75;5.00;;;;;;;28.67;42.42;98630.75;1765261;81;25603;-67
2022/06/06 08:11:38;;;;;;;6.58;5.40;;;;;;;28.83;43.92;98626.96;1765651;81;25674;-63
2022/06/06 08:14:33;;;;;;;5.25;4.80;;;;;;;29.23;42.94;98618.95;1765576;81;26522;-65
2022/06/06 08:17:24;;;;;;;5.42;4.55;;;;;;;29.67;42.70;98625.05;1797344;79;25418;-66
2022/06/06 08:20:30;;;;;;;6.55;4.97;;;;;;;30.08;41.90;98630.98;1807325;79;27328;-62
2022/06/06 08:23:01;;;;;;;5.60;4.90;;;;;;;30.45;39.59;98627.89;1818266;78;25458;-58
2022/06/06 08:25:31;;;;;;;5.42;4.90;;;;;;;30.80;39.63;98628.80;1820519;78;25485;-63
2022/06/06 08:27:59;;;;;;;5.17;4.58;;;;;;;30.95;39.57;98625.52;1820806;78;26386;-63
2022/06/06 08:30:26;;;;;;;4.47;4.08;;;;;;;31.21;39.25;98626.87;1820621;78;25802;-65
2022/06/06 08:32:53;;;;;;;4.97;4.33;;;;;;;31.32;38.92;98626.50;1820184;78;27414;-61
2022/06/06 08:35:24;;;;;;;5.12;4.60;;;;;;;31.43;38.96;98621.27;1820399;78;25823;-62
2022/06/06 08:38:11;;;;;;;7.72;4.22;;;;;;;31.41;37.89;98620.95;1820827;78;25618;-62
2022/06/06 08:41:09;;;;;;;4.62;4.10;;;;;;;31.48;37.80;98617.67;1750442;78;26445;-62
2022/06/06 08:44:02;;;;;;;4.60;4.12;;;;;;;31.66;36.57;98619.89;1820247;78;25486;-63
2022/06/06 08:47:09;;;;;;;5.37;4.42;;;;;;;31.70;38.52;98621.16;1820367;78;27399;-59
2022/06/06 08:53:43;;;;;;;7.10;4.10;;;;;;;32.53;36.90;98616.63;1746632;82;25669;-61
2022/06/06 08:56:44;;;;;;;;;;;;;;;32.92;34.54;98620.53;1747982;82;26571;-65
2022/06/06 08:59:57;;;;;;;4.53;4.12;;;;;;;32.63;33.08;98625.17;1730003;82;25489;-63
2022/06/06 09:02:46;;;;;;;3.90;3.60;;;;;;;32.06;34.45;98628.34;1709429;83;27484;-59
2022/06/06 09:05:43;;;;;;;5.33;4.87;;;;;;;31.91;32.92;98621.78;1709527;83;27141;-66
2022/06/06 09:08:49;;;;;;;5.70;4.25;;;;;;;31.65;33.72;98621.92;1709436;83;25607;-60
2022/06/06 09:11:58;;;;;;;4.28;3.85;;;;;;;31.66;35.25;98624.91;1709511;83;25709;-65
2022/06/06 09:15:13;;;;;;;5.65;4.97;;;;;;;31.98;35.83;98618.55;1708378;83;25678;-65
2022/06/06 09:18:18;;;;;;;4.95;4.50;;;;;;;32.14;33.02;98618.32;1700275;83;27604;-64
2022/06/06 09:21:02;;;;;;;4.95;4.53;;;;;;;32.49;33.52;98626.53;1699717;84;25699;-58
2022/06/06 09:24:15;;;;;;;5.00;4.58;;;;;;;32.60;33.41;98625.48;1741776;79;25849;-65
2022/06/06 09:27:23;;;;;;;9.80;6.53;;;;;;;32.56;33.08;98624.84;1797243;79;26326;-64
2022/06/06 09:30:07;;;;;;;4.97;4.58;;;;;;;32.51;33.25;98626.86;1797070;79;25680;-64
2022/06/06 09:33:16;;;;;;;5.25;4.20;;;;;;;32.78;31.13;98626.17;1797421;79;27537;-64
2022/06/06 09:36:29;;;;;;;4.62;4.20;;;;;;;32.75;32.63;98627.11;1797273;79;25415;-63
2022/06/06 09:39:14;;;;;;;6.12;5.42;;;;;;;32.81;31.16;98615.92;1796709;79;25558;-65
2022/06/06 09:42:07;;;;;;;4.75;4.28;;;;;;;32.67;31.83;98613.07;1796197;79;25728;-65
2022/06/06 09:44:50;;;;;;;4.92;4.40;;;;;;;32.94;32.37;98605.87;1796818;79;25423;-66
2022/06/06 09:47:38;;;;;;;4.70;4.30;;;;;;;33.27;30.83;98609.56;1796241;79;27445;-66
2022/06/06 09:50:53;;;;;;;5.25;4.10;;;;;;;32.99;31.01;98600.21;1796940;79;26334;-61
2022/06/06 09:53:39;;;;;;;4.50;4.10;;;;;;;32.78;31.00;98605.55;1796248;79;25692;-62
2022/06/06 09:59:33;;;;;;;3.90;3.60;;;;;;;32.74;30.01;98600.00;1796908;79;25636;-64
2022/06/06 10:02:20;;;;;;;4.75;3.98;;;;;;;32.96;29.63;98596.89;1796839;79;29476;-63
2022/06/06 10:05:33;;;;;;;4.65;4.35;;;;;;;33.37;30.44;98599.64;1779827;80;25718;-64
2022/06/06 10:08:31;;;;;;;4.83;3.77;;;;;;;33.83;28.58;98596.63;1780559;80;25674;-61
2022/06/06 10:11:26;;;;;;;5.03;4.60;;;;;;;32.61;29.01;98605.78;1779472;80;25779;-64
2022/06/06 10:14:34;;;;;;;3.52;3.22;;;;;;;32.18;29.66;98595.52;1779804;80;25616;-64
2022/06/06 10:17:44;;;;;;;7.12;4.92;;;;;;;31.94;30.56;98590.98;1769776;80;28181;-65
2022/06/06 10:20:47;;;;;;;4.03;2.67;;;;;;;31.49;30.38;98593.15;1759701;81;25498;-65
2022/06/06 10:23:40;;;;;;;2.77;2.55;;;;;;;31.25;31.55;98587.91;1759517;81;25616;-60
2022/06/06 10:26:32;;;;;;;3.87;3.50;;;;;;;31.28;31.81;98589.82;1759569;81;25785;-65
2022/06/06 10:29:21;;;;;;;3.67;3.30;;;;;;;31.12;31.29;98587.16;1760010;81;25640;-65
2022/06/06 10:32:32;;;;;;;4.42;3.27;;;;;;;30.99;31.91;98589.39;1759713;81;26786;-65
2022/06/06 10:35:13;;;;;;;3.87;2.85;;;;;;;30.98;31.51;98588.44;1759928;81;25783;-65
2022/06/06 10:37:47;;;;;;;3.00;2.70;;;;;;;31.09;33.09;98578.17;1758774;81;25704;-64
2022/06/06 10:40:22;;;;;;;2.75;2.55;;;;;;;31.38;32.44;98577.19;1761507;81;25677;-64
2022/06/06 10:43:19;;;;;;;3.65;1.90;;;;;;;31.83;29.78;98582.21;1765460;80;25679;-65
2022/06/06 10:45:53;;;;;;;2.60;2.40;;;;;;;32.27;30.12;98575.69;1765202;81;27455;-65
2022/06/06 10:48:54;;;;;;;2.92;2.50;;;;;;;32.25;29.03;98581.06;1747279;81;25847;-65
2022/06/06 10:51:41;;;;;;;2.77;2.55;;;;;;;31.87;28.84;98576.42;1764967;80;25455;-65
2022/06/06 10:54:37;;;;;;;3.12;2.55;;;;;;;31.84;29.60;98580.98;1764849;80;26550;-65
2022/06/06 10:57:28;;;;;;;3.00;2.80;;;;;;;31.96;29.12;98573.67;1765271;81;25645;-65
2022/06/06 11:00:15;;;;;;;2.90;2.70;;;;;;;32.06;28.85;98577.33;1765297;81;27463;-65
2022/06/06 11:03:31;;;;;;;2.87;2.67;;;;;;;32.44;28.77;98578.30;1765532;81;25660;-65
2022/06/06 11:06:48;;;;;;;2.65;2.45;;;;;;;32.94;28.68;98576.08;1764508;81;25450;-65
2022/06/06 11:09:35;;;;;;;2.70;2.50;;;;;;;32.91;30.02;98579.86;1765423;81;25779;-65
2022/06/06 11:12:31;;;;;;;2.95;2.65;;;;;;;32.72;31.35;98574.79;1765183;81;25692;-65
2022/06/06 11:15:01;;;;;;;3.05;2.83;;;;;;;32.64;31.68;98570.81;1759503;80;28233;-57
2022/06/06 11:17:49;;;;;;;;;;;;;;;32.27;33.65;98573.51;1756170;80;26636;-61
2022/06/06 11:21:04;;;;;;;4.12;3.22;;;;;;;32.20;33.82;98574.56;1775808;79;25483;-60
2022/06/06 11:23:39;;;;;;;3.50;3.20;;;;;;;32.12;34.24;98585.39;1779765;79;25966;-64
2022/06/06 11:26:30;;;;;;;4.95;3.33;;;;;;;32.14;35.74;98580.67;1782015;79;25681;-65
2022/06/06 11:29:07;;;;;;;3.35;3.05;;;;;;;32.22;36.81;98576.31;1775803;80;28205;-64
2022/06/06 11:32:02;;;;;;;4.35;3.05;;;;;;;31.98;35.65;98574.63;1777148;80;25793;-62
2022/06/06 11:35:18;;;;;;;5.15;3.05;;;;;;;31.78;36.96;98575.75;1776130;78;25717;-59
2022/06/06 11:38:13;;;;;;;5.72;3.20;;;;;;;31.50;37.22;98572.09;1783097;79;26031;-62
2022/06/06 11:41:25;;;;;;;5.70;2.80;;;;;;;31.55;37.94;98579.21;1785395;78;25565;-65
2022/06/06 11:44:26;;;;;;;6.05;3.10;;;;;;;31.49;36.83;98583.88;1775712;79;28210;-62
2022/06/06 11:47:21;;;;;;;3.70;2.83;;;;;;;31.35;36.78;98583.13;1779437;79;25441;-64
2022/06/06 11:50:17;;;;;;;3.00;2.65;;;;;;;31.22;37.69;98580.33;1781766;79;25699;-65
2022/06/06 11:53:04;;;;;;;2.75;2.52;;;;;;;31.08;38.49;98579.42;1775056;80;25846;-65
2022/06/06 11:55:57;;;;;;;3.95;2.70;;;;;;;31.10;38.82;98572.05;1783802;79;25760;-63
2022/06/06 11:59:01;;;;;;;5.20;3.00;;;;;;;31.06;39.36;98578.47;1789340;79;28168;-64
2022/06/06 12:02:02;;;;;;;4.28;2.92;;;;;;;31.25;38.22;98576.58;1788545;79;25715;-64
2022/06/06 12:05:08;;;;;;;3.90;3.12;;;;;;;31.16;38.69;98576.50;1788503;79;25584;-63
2022/06/06 12:08:00;;;;;;;5.50;3.10;;;;;;;30.92;38.49;98576.92;1775314;80;25782;-64
2022/06/06 12:10:35;;;;;;;4.55;3.08;;;;;;;30.80;39.04;98584.96;1774383;80;25585;-64
2022/06/06 12:13:25;;;;;;;4.00;2.90;;;;;;;30.92;38.84;98582.58;1775573;80;27430;-64
2022/06/06 12:16:23;;;;;;;4.42;2.77;;;;;;;30.86;39.61;98580.95;1771592;80;25641;-65
2022/06/06 12:19:25;;;;;;;3.70;2.35;;;;;;;30.83;38.89;98583.89;1750396;80;25742;-64
2022/06/06 12:22:24;;;;;;;5.75;2.22;;;;;;;30.71;39.01;98582.64;1749813;81;25902;-64
2022/06/06 12:25:22;;;;;;;6.07;2.40;;;;;;;30.46;39.85;98577.97;1750430;81;25446;-64
2022/06/06 12:28:27;;;;;;;6.85;2.50;;;;;;;30.29;39.82;98580.11;1749822;81;27408;-64
2022/06/06 12:31:25;;;;;;;2.02;1.70;;;;;;;30.11;41.35;98574.99;1749941;82;25475;-64
2022/06/06 12:34:31;;;;;;;3.25;1.90;;;;;;;29.66;40.90;98582.54;1750517;82;25668;-64
2022/06/06 12:37:25;;;;;;;3.10;1.60;;;;;;;29.40;41.19;98581.00;1750321;82;25723;-65
2022/06/06 12:40:15;;;;;;;2.17;1.50;;;;;;;29.26;41.10;98575.13;1750400;82;25635;-64
2022/06/06 12:43:25;;;;;;;2.17;1.60;;;;;;;28.92;42.42;98582.82;1738152;81;27764;-64
2022/06/06 12:46:04;;;;;;;;;;;;;;;28.58;43.81;98574.81;1726180;83;25623;-61
2022/06/06 12:48:51;;;;;;;2.60;2.00;;;;;;;28.27;43.46;98571.67;1719570;83;25565;-63
2022/06/06 12:51:26;;;;;;;3.42;1.70;;;;;;;28.14;43.52;98575.77;1723771;83;26088;-58
2022/06/06 12:57:30;;;;;;;2.50;1.98;;;;;;;27.74;44.81;98583.65;1749229;81;25750;-61
2022/06/06 13:00:08;;;;;;;3.00;1.70;;;;;;;27.76;44.14;98579.19;1748440;82;25868;-60
2022/06/06 13:02:51;;;;;;;3.92;1.65;;;;;;;27.71;43.93;98585.32;1749784;82;25939;-63
2022/06/06 13:05:50;;;;;;;2.98;1.55;;;;;;;27.46;43.71;98585.80;1749773;82;25808;-62
2022/06/06 13:08:47;;;;;;;4.10;1.57;;;;;;;27.38;44.05;98583.73;1749704;82;25617;-60
2022/06/06 13:11:40;;;;;;;2.33;1.60;;;;;;;27.13;45.05;98584.98;1749796;82;27459;-63
2022/06/06 13:15:02;;;;;;;2.92;1.47;;;;;;;27.02;45.37;98583.76;1749641;82;25702;-61
2022/06/06 13:18:02;;;;;;;3.92;1.70;;;;;;;27.00;45.85;98582.00;1751046;81;26224;-60